Time,TemperatureF,DewpointF,PressureIn,WindDirection,WindDirectionDegrees,WindSpeedMPH,WindSpeedGustMPH,Humidity,HourlyPrecipIn,Conditions,Clouds,dailyrainin,SoftwareType,DateUTC
2013-09-06 00:14:00,75.0,58.0,30.07,West,281,0.0,0.0,55,0.00,,,0.00,,2013-09-06 04:14:00,
2013-09-06 00:23:00,74.0,58.0,30.08,NW,317,0.0,0.0,57,0.00,,,0.00,,2013-09-06 04:23:00,
2013-09-06 00:34:00,74.0,58.0,30.08,NW,317,0.0,0.0,57,0.00,,,0.00,,2013-09-06 04:34:00,
2013-09-06 00:54:00,73.0,58.0,30.09,NNW,332,0.0,0.0,60,0.00,,,0.00,,2013-09-06 04:54:00,
2013-09-06 01:03:00,73.0,58.0,30.09,NNW,332,0.0,0.0,60,0.00,,,0.00,,2013-09-06 05:03:00,
2013-09-06 01:12:00,73.0,58.0,30.09,NNW,332,0.0,0.0,60,0.00,,,0.00,,2013-09-06 05:12:00,
2013-09-06 01:23:00,72.0,60.0,30.10,WNW,300,0.0,0.0,67,0.00,,,0.00,,2013-09-06 05:23:00,
2013-09-06 01:52:00,71.0,58.0,30.10,WSW,238,0.0,0.0,64,0.00,,,0.00,,2013-09-06 05:52:00,
2013-09-06 02:02:00,71.0,58.0,30.10,WSW,238,0.0,0.0,64,0.00,,,0.00,,2013-09-06 06:02:00,
2013-09-06 02:12:00,71.0,58.0,30.10,WSW,238,0.0,0.0,64,0.00,,,0.00,,2013-09-06 06:12:00,
2013-09-06 02:22:00,71.0,58.0,30.11,NW,315,0.0,0.0,63,0.00,,,0.00,,2013-09-06 06:22:00,
2013-09-06 02:53:00,70.0,57.0,30.11,NW,320,0.0,0.0,63,0.00,,,0.00,,2013-09-06 06:53:00,
2013-09-06 03:12:00,69.0,56.0,30.11,NW,320,0.0,0.0,64,0.00,,,0.00,,2013-09-06 07:12:00,
2013-09-06 03:23:00,69.0,56.0,30.11,NW,320,0.0,0.0,63,0.00,,,0.00,,2013-09-06 07:23:00,
2013-09-06 03:32:00,69.0,56.0,30.11,NW,320,0.0,0.0,63,0.00,,,0.00,,2013-09-06 07:32:00,
2013-09-06 03:42:00,69.0,56.0,30.11,NW,320,0.0,0.0,63,0.00,,,0.00,,2013-09-06 07:42:00,
2013-09-06 03:52:00,68.0,55.0,30.11,NNW,339,0.0,0.0,63,0.00,,,0.00,,2013-09-06 07:52:00,
2013-09-06 04:12:00,68.0,55.0,30.11,NNW,339,0.0,0.0,63,0.00,,,0.00,,2013-09-06 08:12:00,
2013-09-06 04:22:00,68.0,55.0,30.11,NNW,339,0.0,0.0,63,0.00,,,0.00,,2013-09-06 08:22:00,
2013-09-06 04:42:00,67.0,54.0,30.11,NNW,339,0.0,0.0,62,0.00,,,0.00,,2013-09-06 08:42:00,
2013-09-06 04:52:00,67.0,54.0,30.11,NNW,339,0.0,0.0,62,0.00,,,0.00,,2013-09-06 08:52:00,
2013-09-06 05:02:00,67.0,54.0,30.11,NNW,339,0.0,0.0,62,0.00,,,0.00,,2013-09-06 09:02:00,
2013-09-06 05:11:00,67.0,54.0,30.11,NNW,339,0.0,0.0,62,0.00,,,0.00,,2013-09-06 09:11:00,
2013-09-06 05:22:00,66.0,54.0,30.12,NNW,339,0.0,0.0,66,0.00,,,0.00,,2013-09-06 09:22:00,
2013-09-06 05:33:00,66.0,54.0,30.12,NNW,339,0.0,0.0,66,0.00,,,0.00,,2013-09-06 09:33:00,
2013-09-06 05:54:00,66.0,54.0,30.12,NNW,339,0.0,0.0,66,0.00,,,0.00,,2013-09-06 09:54:00,
2013-09-06 06:13:00,66.0,54.0,30.13,NNW,334,0.0,0.0,65,0.00,,,0.00,,2013-09-06 10:13:00,
2013-09-06 06:23:00,66.0,55.0,30.14,NNW,334,0.0,0.0,67,0.00,,,0.00,,2013-09-06 10:23:00,
2013-09-06 06:43:00,66.0,56.0,30.14,NNW,334,0.0,0.0,69,0.00,,,0.00,,2013-09-06 10:43:00,
2013-09-06 06:53:00,66.0,56.0,30.14,NNW,334,0.0,0.0,69,0.00,,,0.00,,2013-09-06 10:53:00,
2013-09-06 07:12:00,65.0,56.0,30.16,NNW,335,0.0,0.0,72,0.00,,,0.00,,2013-09-06 11:12:00,
2013-09-06 07:22:00,65.0,56.0,30.16,NNW,335,0.0,0.0,73,0.00,,,0.00,,2013-09-06 11:22:00,
2013-09-06 07:52:00,65.0,56.0,30.17,North,5,0.0,0.0,73,0.00,,,0.00,,2013-09-06 11:52:00,
2013-09-06 08:02:00,65.0,56.0,30.17,North,5,0.0,0.0,73,0.00,,,0.00,,2013-09-06 12:02:00,
2013-09-06 08:12:00,65.0,56.0,30.17,North,5,0.0,0.0,73,0.00,,,0.00,,2013-09-06 12:12:00,
2013-09-06 08:22:00,65.0,56.0,30.18,NNE,26,0.0,0.0,72,0.00,,,0.00,,2013-09-06 12:22:00,
2013-09-06 08:42:00,66.0,57.0,30.18,NW,314,0.0,0.0,73,0.00,,,0.00,,2013-09-06 12:42:00,
2013-09-06 08:52:00,66.0,56.0,30.18,NNW,330,0.0,0.0,70,0.00,,,0.00,,2013-09-06 12:52:00,
2013-09-06 09:11:00,67.0,56.0,30.19,North,11,0.0,0.0,68,0.00,,,0.00,,2013-09-06 13:11:00,
2013-09-06 09:22:00,67.0,56.0,30.19,North,11,0.0,0.0,68,0.00,,,0.00,,2013-09-06 13:22:00,
2013-09-06 09:52:00,68.0,56.0,30.20,WNW,291,0.0,0.0,66,0.00,,,0.00,,2013-09-06 13:52:00,
2013-09-06 10:02:00,68.0,56.0,30.20,WNW,291,0.0,0.0,66,0.00,,,0.00,,2013-09-06 14:02:00,
2013-09-06 10:11:00,68.0,56.0,30.20,WNW,291,0.0,0.0,66,0.00,,,0.00,,2013-09-06 14:11:00,
2013-09-06 10:22:00,69.0,58.0,30.20,WNW,295,0.0,0.0,68,0.00,,,0.00,,2013-09-06 14:22:00,
2013-09-06 10:32:00,69.0,58.0,30.20,WNW,295,0.0,0.0,68,0.00,,,0.00,,2013-09-06 14:32:00,
2013-09-06 10:52:00,68.0,56.0,30.21,West,262,0.0,0.0,66,0.00,,,0.00,,2013-09-06 14:52:00,
2013-09-06 11:11:00,69.0,57.0,30.21,West,278,0.0,0.0,66,0.00,,,0.00,,2013-09-06 15:11:00,
2013-09-06 11:22:00,70.0,58.0,30.21,West,263,0.0,0.0,66,0.00,,,0.00,,2013-09-06 15:22:00,
2013-09-06 11:53:00,70.0,57.0,30.21,NW,323,0.0,0.0,64,0.00,,,0.00,,2013-09-06 15:53:00,
2013-09-06 12:13:00,71.0,59.0,30.21,West,278,0.0,0.0,66,0.00,,,0.00,,2013-09-06 16:13:00,
2013-09-06 12:24:00,71.0,57.0,30.21,West,271,0.0,0.0,62,0.00,,,0.00,,2013-09-06 16:24:00,
2013-09-06 12:33:00,71.0,57.0,30.21,West,271,0.0,0.0,62,0.00,,,0.00,,2013-09-06 16:33:00,
2013-09-06 12:53:00,72.0,58.0,30.20,South,182,0.0,0.0,62,0.00,,,0.00,,2013-09-06 16:53:00,
2013-09-06 13:03:00,72.0,58.0,30.20,South,182,0.0,0.0,62,0.00,,,0.00,,2013-09-06 17:03:00,
2013-09-06 13:24:00,73.0,58.0,30.19,West,274,0.0,0.0,60,0.00,,,0.00,,2013-09-06 17:24:00,
2013-09-06 13:43:00,72.0,58.0,30.19,WNW,301,0.0,0.0,62,0.00,,,0.00,,2013-09-06 17:43:00,
2013-09-06 13:53:00,73.0,58.0,30.19,WNW,293,0.0,0.0,60,0.00,,,0.00,,2013-09-06 17:53:00,
2013-09-06 14:01:00,73.0,59.0,30.18,WNW,284,0.0,0.0,61,0.00,,,0.00,,2013-09-06 18:01:00,
2013-09-06 14:02:00,73.0,58.0,30.19,WNW,293,0.0,0.0,60,0.00,,,0.00,,2013-09-06 18:02:00,
2013-09-06 14:12:00,73.0,58.0,30.19,WNW,293,0.0,0.0,60,0.00,,,0.00,,2013-09-06 18:12:00,
2013-09-06 14:22:00,73.0,59.0,30.18,WNW,284,0.0,0.0,61,0.00,,,0.00,,2013-09-06 18:22:00,
2013-09-06 14:32:00,73.0,59.0,30.18,WNW,284,0.0,0.0,61,0.00,,,0.00,,2013-09-06 18:32:00,
2013-09-06 14:42:00,73.0,59.0,30.18,WNW,284,0.0,0.0,61,0.00,,,0.00,,2013-09-06 18:42:00,
2013-09-06 14:52:00,73.0,59.0,30.18,WNW,284,0.0,0.0,61,0.00,,,0.00,,2013-09-06 18:52:00,
2013-09-06 15:22:00,75.0,59.0,30.15,SW,228,0.0,0.0,57,0.00,,,0.00,,2013-09-06 19:22:00,
2013-09-06 15:43:00,76.0,61.0,30.14,NNE,31,0.0,0.0,60,0.00,,,0.00,,2013-09-06 19:43:00,
2013-09-06 15:52:00,75.0,59.0,30.14,NNE,32,0.0,0.0,57,0.00,,,0.00,,2013-09-06 19:52:00,
2013-09-06 16:02:00,75.0,59.0,30.14,NNE,32,0.0,0.0,57,0.00,,,0.00,,2013-09-06 20:02:00,
2013-09-06 16:12:00,75.0,59.0,30.14,NNE,32,0.0,0.0,57,0.00,,,0.00,,2013-09-06 20:12:00,
2013-09-06 16:23:00,73.0,57.0,30.13,NNE,18,0.0,0.0,57,0.00,,,0.00,,2013-09-06 20:23:00,
2013-09-06 16:52:00,75.0,58.0,30.12,NNE,15,0.0,0.0,55,0.00,,,0.00,,2013-09-06 20:52:00,
2013-09-06 17:12:00,76.0,57.0,30.12,NNE,13,0.0,0.0,52,0.00,,,0.00,,2013-09-06 21:12:00,
2013-09-06 17:22:00,76.0,57.0,30.12,NNE,13,0.0,0.0,52,0.00,,,0.00,,2013-09-06 21:22:00,
2013-09-06 17:54:00,75.0,57.0,30.11,North,9,0.0,0.0,54,0.00,,,0.00,,2013-09-06 21:54:00,
2013-09-06 18:13:00,76.0,57.0,30.11,North,5,0.0,0.0,52,0.00,,,0.00,,2013-09-06 22:13:00,
2013-09-06 18:23:00,76.0,57.0,30.11,North,5,0.0,0.0,52,0.00,,,0.00,,2013-09-06 22:23:00,
2013-09-06 18:33:00,76.0,57.0,30.11,North,5,0.0,0.0,52,0.00,,,0.00,,2013-09-06 22:33:00,
2013-09-06 18:54:00,73.0,55.0,30.11,North,5,0.0,0.0,54,0.00,,,0.00,,2013-09-06 22:54:00,
2013-09-06 19:13:00,73.0,58.0,30.11,North,5,0.0,0.0,59,0.00,,,0.00,,2013-09-06 23:13:00,
2013-09-06 19:23:00,72.0,58.0,30.11,North,5,0.0,0.0,62,0.00,,,0.00,,2013-09-06 23:23:00,
2013-09-06 19:52:00,68.0,60.0,30.11,North,5,0.0,0.0,75,0.00,,,0.00,,2013-09-06 23:52:00,
2013-09-06 20:12:00,67.0,60.0,30.11,North,5,0.0,0.0,79,0.00,,,0.00,,2013-09-07 00:12:00,
2013-09-06 20:22:00,65.0,60.0,30.11,North,5,0.0,0.0,83,0.00,,,0.00,,2013-09-07 00:22:00,
2013-09-06 20:32:00,65.0,60.0,30.11,North,5,0.0,0.0,83,0.00,,,0.00,,2013-09-07 00:32:00,
2013-09-06 20:42:00,65.0,60.0,30.11,North,5,0.0,0.0,83,0.00,,,0.00,,2013-09-07 00:42:00,
2013-09-06 20:52:00,64.0,60.0,30.12,North,5,0.0,0.0,87,0.00,,,0.00,,2013-09-07 00:52:00,
2013-09-06 21:12:00,63.0,59.0,30.12,North,5,0.0,0.0,86,0.00,,,0.00,,2013-09-07 01:12:00,
2013-09-06 21:22:00,63.0,59.0,30.12,North,5,0.0,0.0,86,0.00,,,0.00,,2013-09-07 01:22:00,
2013-09-06 21:42:00,61.0,58.0,30.13,North,5,0.0,0.0,89,0.00,,,0.00,,2013-09-07 01:42:00,
2013-09-06 21:54:00,61.0,58.0,30.13,North,5,0.0,0.0,89,0.00,,,0.00,,2013-09-07 01:54:00,
2013-09-06 22:12:00,60.0,58.0,30.13,North,5,0.0,0.0,92,0.00,,,0.00,,2013-09-07 02:12:00,
2013-09-06 22:23:00,60.0,58.0,30.13,North,5,0.0,0.0,92,0.00,,,0.00,,2013-09-07 02:23:00,
2013-09-06 22:42:00,59.0,57.0,30.12,North,5,0.0,0.0,92,0.00,,,0.00,,2013-09-07 02:42:00,
2013-09-06 22:52:00,58.0,56.0,30.12,North,5,0.0,0.0,92,0.00,,,0.00,,2013-09-07 02:52:00,
2013-09-06 23:02:00,58.0,56.0,30.12,North,5,0.0,0.0,92,0.00,,,0.00,,2013-09-07 03:02:00,
2013-09-06 23:12:00,58.0,56.0,30.12,North,5,0.0,0.0,92,0.00,,,0.00,,2013-09-07 03:12:00,
2013-09-06 23:23:00,58.0,56.0,30.12,North,5,0.0,0.0,92,0.00,,,0.00,,2013-09-07 03:23:00,
2013-09-06 23:55:00,57.0,55.0,30.12,North,5,0.0,0.0,92,0.00,,,0.00,,2013-09-07 03:55:00,